<?xml version="1.0" encoding="UTF-8" standalone="no" ?>
<gpx xmlns="http://www.topografix.com/GPX/1/1" xmlns:xsi="http://www.w3.org/2001/XMLSchema-instance" xsi:schemaLocation="http://www.topografix.com/GPX/1/1 http://www.topografix.com/GPX/1/1/gpx.xsd" version="1.1" creator="VisuGPX - https://www.visugpx.com">
  <metadata>
    <name>La Roche Berthaud</name>
    <desc><![CDATA[Parcours de la Roche Berthaud Col de la Croix du Ban (69)]]></desc>
  </metadata>
  <trk>
    <name><![CDATA[2021-03-24 09-22-49]]></name>
    <trkseg>
      <trkpt lat="45.77796" lon="4.64016">
        <ele>615.38</ele>
        <time>2021-03-24T08:14:28Z</time>
      </trkpt>
      <trkpt lat="45.77796" lon="4.64016">
        <ele>615.38</ele>
        <time>2021-03-24T08:14:29Z</time>
      </trkpt>
      <trkpt lat="45.77796" lon="4.64016">
        <ele>615.86</ele>
        <time>2021-03-24T08:14:38Z</time>
      </trkpt>
      <trkpt lat="45.77802" lon="4.64004">
        <ele>616.34</ele>
        <time>2021-03-24T08:14:44Z</time>
      </trkpt>
      <trkpt lat="45.77804" lon="4.64003">
        <ele>616.82</ele>
        <time>2021-03-24T08:14:45Z</time>
      </trkpt>
      <trkpt lat="45.77806" lon="4.64004">
        <ele>616.34</ele>
        <time>2021-03-24T08:14:46Z</time>
      </trkpt>
      <trkpt lat="45.77806" lon="4.64006">
        <ele>615.86</ele>
        <time>2021-03-24T08:14:47Z</time>
      </trkpt>
      <trkpt lat="45.77807" lon="4.64009">
        <ele>615.86</ele>
        <time>2021-03-24T08:14:48Z</time>
      </trkpt>
      <trkpt lat="45.77807" lon="4.64018">
        <ele>615.86</ele>
        <time>2021-03-24T08:14:51Z</time>
      </trkpt>
      <trkpt lat="45.77812" lon="4.64063">
        <ele>615.86</ele>
        <time>2021-03-24T08:15:01Z</time>
      </trkpt>
      <trkpt lat="45.77812" lon="4.64065">
        <ele>614.9</ele>
        <time>2021-03-24T08:15:03Z</time>
      </trkpt>
      <trkpt lat="45.77813" lon="4.64081">
        <ele>613.46</ele>
        <time>2021-03-24T08:15:08Z</time>
      </trkpt>
      <trkpt lat="45.77813" lon="4.64085">
        <ele>613.46</ele>
        <time>2021-03-24T08:15:09Z</time>
      </trkpt>
      <trkpt lat="45.77813" lon="4.64091">
        <ele>612.98</ele>
        <time>2021-03-24T08:15:10Z</time>
      </trkpt>
      <trkpt lat="45.7782" lon="4.64141">
        <ele>612.02</ele>
        <time>2021-03-24T08:15:18Z</time>
      </trkpt>
      <trkpt lat="45.77821" lon="4.64169">
        <ele>611.54</ele>
        <time>2021-03-24T08:15:22Z</time>
      </trkpt>
      <trkpt lat="45.77831" lon="4.64217">
        <ele>611.06</ele>
        <time>2021-03-24T08:15:31Z</time>
      </trkpt>
      <trkpt lat="45.77836" lon="4.64228">
        <ele>611.06</ele>
        <time>2021-03-24T08:15:36Z</time>
      </trkpt>
      <trkpt lat="45.77839" lon="4.6424">
        <ele>611.54</ele>
        <time>2021-03-24T08:15:41Z</time>
      </trkpt>
      <trkpt lat="45.77842" lon="4.64286">
        <ele>612.98</ele>
        <time>2021-03-24T08:15:51Z</time>
      </trkpt>
      <trkpt lat="45.77837" lon="4.64329">
        <ele>614.9</ele>
        <time>2021-03-24T08:16:00Z</time>
      </trkpt>
      <trkpt lat="45.7783" lon="4.64355">
        <ele>615.86</ele>
        <time>2021-03-24T08:16:07Z</time>
      </trkpt>
      <trkpt lat="45.7783" lon="4.64358">
        <ele>616.34</ele>
        <time>2021-03-24T08:16:08Z</time>
      </trkpt>
      <trkpt lat="45.77829" lon="4.64362">
        <ele>616.34</ele>
        <time>2021-03-24T08:16:09Z</time>
      </trkpt>
      <trkpt lat="45.77828" lon="4.64365">
        <ele>616.82</ele>
        <time>2021-03-24T08:16:10Z</time>
      </trkpt>
      <trkpt lat="45.77828" lon="4.64368">
        <ele>616.82</ele>
        <time>2021-03-24T08:16:11Z</time>
      </trkpt>
      <trkpt lat="45.77828" lon="4.64371">
        <ele>616.82</ele>
        <time>2021-03-24T08:16:12Z</time>
      </trkpt>
      <trkpt lat="45.77828" lon="4.64374">
        <ele>617.78</ele>
        <time>2021-03-24T08:16:13Z</time>
      </trkpt>
      <trkpt lat="45.77828" lon="4.64377">
        <ele>617.78</ele>
        <time>2021-03-24T08:16:14Z</time>
      </trkpt>
      <trkpt lat="45.77827" lon="4.64385">
        <ele>618.26</ele>
        <time>2021-03-24T08:16:16Z</time>
      </trkpt>
      <trkpt lat="45.77826" lon="4.64389">
        <ele>618.26</ele>
        <time>2021-03-24T08:16:17Z</time>
      </trkpt>
      <trkpt lat="45.77827" lon="4.64447">
        <ele>619.23</ele>
        <time>2021-03-24T08:16:30Z</time>
      </trkpt>
      <trkpt lat="45.77827" lon="4.64486">
        <ele>620.19</ele>
        <time>2021-03-24T08:16:38Z</time>
      </trkpt>
      <trkpt lat="45.77829" lon="4.64493">
        <ele>620.19</ele>
        <time>2021-03-24T08:16:39Z</time>
      </trkpt>
      <trkpt lat="45.7783" lon="4.645">
        <ele>620.19</ele>
        <time>2021-03-24T08:16:40Z</time>
      </trkpt>
      <trkpt lat="45.77831" lon="4.64509">
        <ele>620.19</ele>
        <time>2021-03-24T08:16:41Z</time>
      </trkpt>
      <trkpt lat="45.77832" lon="4.64516">
        <ele>620.19</ele>
        <time>2021-03-24T08:16:42Z</time>
      </trkpt>
      <trkpt lat="45.77833" lon="4.64523">
        <ele>620.19</ele>
        <time>2021-03-24T08:16:43Z</time>
      </trkpt>
      <trkpt lat="45.77832" lon="4.6453">
        <ele>620.19</ele>
        <time>2021-03-24T08:16:44Z</time>
      </trkpt>
      <trkpt lat="45.77832" lon="4.64546">
        <ele>620.19</ele>
        <time>2021-03-24T08:16:46Z</time>
      </trkpt>
      <trkpt lat="45.77832" lon="4.64565">
        <ele>620.19</ele>
        <time>2021-03-24T08:16:48Z</time>
      </trkpt>
      <trkpt lat="45.77836" lon="4.64587">
        <ele>618.75</ele>
        <time>2021-03-24T08:16:50Z</time>
      </trkpt>
      <trkpt lat="45.77838" lon="4.6461">
        <ele>617.3</ele>
        <time>2021-03-24T08:16:52Z</time>
      </trkpt>
      <trkpt lat="45.77836" lon="4.64629">
        <ele>615.86</ele>
        <time>2021-03-24T08:16:54Z</time>
      </trkpt>
      <trkpt lat="45.77834" lon="4.64647">
        <ele>614.42</ele>
        <time>2021-03-24T08:16:56Z</time>
      </trkpt>
      <trkpt lat="45.77832" lon="4.64672">
        <ele>612.5</ele>
        <time>2021-03-24T08:16:59Z</time>
      </trkpt>
      <trkpt lat="45.77832" lon="4.6468">
        <ele>612.02</ele>
        <time>2021-03-24T08:17:00Z</time>
      </trkpt>
      <trkpt lat="45.77832" lon="4.64695">
        <ele>612.02</ele>
        <time>2021-03-24T08:17:02Z</time>
      </trkpt>
      <trkpt lat="45.77831" lon="4.64702">
        <ele>612.02</ele>
        <time>2021-03-24T08:17:03Z</time>
      </trkpt>
      <trkpt lat="45.77831" lon="4.6471">
        <ele>612.02</ele>
        <time>2021-03-24T08:17:04Z</time>
      </trkpt>
      <trkpt lat="45.77828" lon="4.64717">
        <ele>611.54</ele>
        <time>2021-03-24T08:17:05Z</time>
      </trkpt>
      <trkpt lat="45.77826" lon="4.64725">
        <ele>611.54</ele>
        <time>2021-03-24T08:17:06Z</time>
      </trkpt>
      <trkpt lat="45.77824" lon="4.64733">
        <ele>611.54</ele>
        <time>2021-03-24T08:17:07Z</time>
      </trkpt>
      <trkpt lat="45.77822" lon="4.64742">
        <ele>611.54</ele>
        <time>2021-03-24T08:17:08Z</time>
      </trkpt>
      <trkpt lat="45.7782" lon="4.64757">
        <ele>611.54</ele>
        <time>2021-03-24T08:17:10Z</time>
      </trkpt>
      <trkpt lat="45.77818" lon="4.64763">
        <ele>611.54</ele>
        <time>2021-03-24T08:17:11Z</time>
      </trkpt>
      <trkpt lat="45.77816" lon="4.64768">
        <ele>611.54</ele>
        <time>2021-03-24T08:17:12Z</time>
      </trkpt>
      <trkpt lat="45.77815" lon="4.64772">
        <ele>611.54</ele>
        <time>2021-03-24T08:17:13Z</time>
      </trkpt>
      <trkpt lat="45.77814" lon="4.64775">
        <ele>611.54</ele>
        <time>2021-03-24T08:17:14Z</time>
      </trkpt>
      <trkpt lat="45.77813" lon="4.64779">
        <ele>611.54</ele>
        <time>2021-03-24T08:17:15Z</time>
      </trkpt>
      <trkpt lat="45.77812" lon="4.64784">
        <ele>611.06</ele>
        <time>2021-03-24T08:17:16Z</time>
      </trkpt>
      <trkpt lat="45.7781" lon="4.64797">
        <ele>609.61</ele>
        <time>2021-03-24T08:17:19Z</time>
      </trkpt>
      <trkpt lat="45.77809" lon="4.64803">
        <ele>609.61</ele>
        <time>2021-03-24T08:17:20Z</time>
      </trkpt>
      <trkpt lat="45.77807" lon="4.64811">
        <ele>609.61</ele>
        <time>2021-03-24T08:17:21Z</time>
      </trkpt>
      <trkpt lat="45.77805" lon="4.64819">
        <ele>609.61</ele>
        <time>2021-03-24T08:17:22Z</time>
      </trkpt>
      <trkpt lat="45.77801" lon="4.64837">
        <ele>609.13</ele>
        <time>2021-03-24T08:17:24Z</time>
      </trkpt>
      <trkpt lat="45.778" lon="4.64846">
        <ele>609.13</ele>
        <time>2021-03-24T08:17:25Z</time>
      </trkpt>
      <trkpt lat="45.77799" lon="4.64855">
        <ele>608.65</ele>
        <time>2021-03-24T08:17:26Z</time>
      </trkpt>
      <trkpt lat="45.77796" lon="4.64869">
        <ele>606.73</ele>
        <time>2021-03-24T08:17:28Z</time>
      </trkpt>
      <trkpt lat="45.77795" lon="4.64875">
        <ele>605.77</ele>
        <time>2021-03-24T08:17:29Z</time>
      </trkpt>
      <trkpt lat="45.77794" lon="4.64882">
        <ele>605.29</ele>
        <time>2021-03-24T08:17:30Z</time>
      </trkpt>
      <trkpt lat="45.77793" lon="4.64901">
        <ele>603.36</ele>
        <time>2021-03-24T08:17:34Z</time>
      </trkpt>
      <trkpt lat="45.77792" lon="4.64905">
        <ele>603.36</ele>
        <time>2021-03-24T08:17:35Z</time>
      </trkpt>
      <trkpt lat="45.77792" lon="4.6491">
        <ele>603.36</ele>
        <time>2021-03-24T08:17:36Z</time>
      </trkpt>
      <trkpt lat="45.77792" lon="4.64916">
        <ele>602.88</ele>
        <time>2021-03-24T08:17:37Z</time>
      </trkpt>
      <trkpt lat="45.77791" lon="4.64921">
        <ele>602.88</ele>
        <time>2021-03-24T08:17:38Z</time>
      </trkpt>
      <trkpt lat="45.77792" lon="4.64927">
        <ele>602.4</ele>
        <time>2021-03-24T08:17:39Z</time>
      </trkpt>
      <trkpt lat="45.77792" lon="4.64934">
        <ele>602.4</ele>
        <time>2021-03-24T08:17:40Z</time>
      </trkpt>
      <trkpt lat="45.77791" lon="4.64942">
        <ele>601.92</ele>
        <time>2021-03-24T08:17:41Z</time>
      </trkpt>
      <trkpt lat="45.7779" lon="4.6495">
        <ele>601.92</ele>
        <time>2021-03-24T08:17:42Z</time>
      </trkpt>
      <trkpt lat="45.7779" lon="4.64957">
        <ele>601.44</ele>
        <time>2021-03-24T08:17:43Z</time>
      </trkpt>
      <trkpt lat="45.77788" lon="4.64994">
        <ele>599.04</ele>
        <time>2021-03-24T08:17:47Z</time>
      </trkpt>
      <trkpt lat="45.77788" lon="4.65004">
        <ele>599.04</ele>
        <time>2021-03-24T08:17:48Z</time>
      </trkpt>
      <trkpt lat="45.77787" lon="4.65014">
        <ele>598.08</ele>
        <time>2021-03-24T08:17:49Z</time>
      </trkpt>
      <trkpt lat="45.77786" lon="4.65032">
        <ele>596.64</ele>
        <time>2021-03-24T08:17:51Z</time>
      </trkpt>
      <trkpt lat="45.77785" lon="4.65042">
        <ele>596.64</ele>
        <time>2021-03-24T08:17:52Z</time>
      </trkpt>
      <trkpt lat="45.77783" lon="4.65051">
        <ele>596.15</ele>
        <time>2021-03-24T08:17:53Z</time>
      </trkpt>
      <trkpt lat="45.77783" lon="4.6506">
        <ele>595.67</ele>
        <time>2021-03-24T08:17:54Z</time>
      </trkpt>
      <trkpt lat="45.77783" lon="4.65068">
        <ele>595.19</ele>
        <time>2021-03-24T08:17:55Z</time>
      </trkpt>
      <trkpt lat="45.77784" lon="4.65076">
        <ele>595.19</ele>
        <time>2021-03-24T08:17:56Z</time>
      </trkpt>
      <trkpt lat="45.77786" lon="4.65084">
        <ele>594.71</ele>
        <time>2021-03-24T08:17:57Z</time>
      </trkpt>
      <trkpt lat="45.778" lon="4.65119">
        <ele>594.71</ele>
        <time>2021-03-24T08:18:05Z</time>
      </trkpt>
      <trkpt lat="45.77803" lon="4.6513">
        <ele>594.71</ele>
        <time>2021-03-24T08:18:07Z</time>
      </trkpt>
      <trkpt lat="45.77805" lon="4.65137">
        <ele>595.19</ele>
        <time>2021-03-24T08:18:08Z</time>
      </trkpt>
      <trkpt lat="45.77806" lon="4.65145">
        <ele>595.19</ele>
        <time>2021-03-24T08:18:09Z</time>
      </trkpt>
      <trkpt lat="45.7781" lon="4.65176">
        <ele>595.19</ele>
        <time>2021-03-24T08:18:13Z</time>
      </trkpt>
      <trkpt lat="45.77811" lon="4.65183">
        <ele>595.19</ele>
        <time>2021-03-24T08:18:14Z</time>
      </trkpt>
      <trkpt lat="45.77812" lon="4.65189">
        <ele>595.19</ele>
        <time>2021-03-24T08:18:15Z</time>
      </trkpt>
      <trkpt lat="45.77812" lon="4.65193">
        <ele>595.19</ele>
        <time>2021-03-24T08:18:16Z</time>
      </trkpt>
      <trkpt lat="45.77813" lon="4.65197">
        <ele>595.19</ele>
        <time>2021-03-24T08:18:17Z</time>
      </trkpt>
      <trkpt lat="45.77813" lon="4.65201">
        <ele>594.23</ele>
        <time>2021-03-24T08:18:18Z</time>
      </trkpt>
      <trkpt lat="45.77814" lon="4.65205">
        <ele>593.75</ele>
        <time>2021-03-24T08:18:19Z</time>
      </trkpt>
      <trkpt lat="45.77815" lon="4.65211">
        <ele>593.27</ele>
        <time>2021-03-24T08:18:20Z</time>
      </trkpt>
      <trkpt lat="45.77816" lon="4.65216">
        <ele>592.79</ele>
        <time>2021-03-24T08:18:21Z</time>
      </trkpt>
      <trkpt lat="45.77818" lon="4.65224">
        <ele>592.79</ele>
        <time>2021-03-24T08:18:22Z</time>
      </trkpt>
      <trkpt lat="45.77823" lon="4.65239">
        <ele>592.31</ele>
        <time>2021-03-24T08:18:24Z</time>
      </trkpt>
      <trkpt lat="45.77825" lon="4.65246">
        <ele>591.83</ele>
        <time>2021-03-24T08:18:25Z</time>
      </trkpt>
      <trkpt lat="45.77828" lon="4.65253">
        <ele>591.83</ele>
        <time>2021-03-24T08:18:26Z</time>
      </trkpt>
      <trkpt lat="45.7783" lon="4.65258">
        <ele>591.83</ele>
        <time>2021-03-24T08:18:27Z</time>
      </trkpt>
      <trkpt lat="45.77833" lon="4.65264">
        <ele>591.35</ele>
        <time>2021-03-24T08:18:28Z</time>
      </trkpt>
      <trkpt lat="45.77836" lon="4.6527">
        <ele>590.87</ele>
        <time>2021-03-24T08:18:29Z</time>
      </trkpt>
      <trkpt lat="45.77837" lon="4.65275">
        <ele>590.39</ele>
        <time>2021-03-24T08:18:30Z</time>
      </trkpt>
      <trkpt lat="45.77837" lon="4.65279">
        <ele>589.43</ele>
        <time>2021-03-24T08:18:31Z</time>
      </trkpt>
      <trkpt lat="45.77836" lon="4.65285">
        <ele>588.46</ele>
        <time>2021-03-24T08:18:32Z</time>
      </trkpt>
      <trkpt lat="45.77835" lon="4.65292">
        <ele>587.98</ele>
        <time>2021-03-24T08:18:33Z</time>
      </trkpt>
      <trkpt lat="45.77834" lon="4.65298">
        <ele>587.5</ele>
        <time>2021-03-24T08:18:34Z</time>
      </trkpt>
      <trkpt lat="45.77833" lon="4.65313">
        <ele>587.02</ele>
        <time>2021-03-24T08:18:36Z</time>
      </trkpt>
      <trkpt lat="45.77832" lon="4.6532">
        <ele>586.54</ele>
        <time>2021-03-24T08:18:37Z</time>
      </trkpt>
      <trkpt lat="45.77831" lon="4.65326">
        <ele>585.58</ele>
        <time>2021-03-24T08:18:38Z</time>
      </trkpt>
      <trkpt lat="45.77829" lon="4.65332">
        <ele>584.62</ele>
        <time>2021-03-24T08:18:39Z</time>
      </trkpt>
      <trkpt lat="45.77828" lon="4.65337">
        <ele>584.62</ele>
        <time>2021-03-24T08:18:40Z</time>
      </trkpt>
      <trkpt lat="45.77827" lon="4.65342">
        <ele>584.14</ele>
        <time>2021-03-24T08:18:41Z</time>
      </trkpt>
      <trkpt lat="45.77826" lon="4.65348">
        <ele>583.18</ele>
        <time>2021-03-24T08:18:42Z</time>
      </trkpt>
      <trkpt lat="45.77824" lon="4.65353">
        <ele>582.7</ele>
        <time>2021-03-24T08:18:43Z</time>
      </trkpt>
      <trkpt lat="45.77822" lon="4.65358">
        <ele>582.22</ele>
        <time>2021-03-24T08:18:44Z</time>
      </trkpt>
      <trkpt lat="45.7782" lon="4.65363">
        <ele>581.73</ele>
        <time>2021-03-24T08:18:45Z</time>
      </trkpt>
      <trkpt lat="45.77817" lon="4.65368">
        <ele>581.25</ele>
        <time>2021-03-24T08:18:46Z</time>
      </trkpt>
      <trkpt lat="45.7781" lon="4.65386">
        <ele>580.29</ele>
        <time>2021-03-24T08:18:49Z</time>
      </trkpt>
      <trkpt lat="45.77803" lon="4.65405">
        <ele>578.85</ele>
        <time>2021-03-24T08:18:52Z</time>
      </trkpt>
      <trkpt lat="45.778" lon="4.65413">
        <ele>578.37</ele>
        <time>2021-03-24T08:18:53Z</time>
      </trkpt>
      <trkpt lat="45.77796" lon="4.65422">
        <ele>577.89</ele>
        <time>2021-03-24T08:18:54Z</time>
      </trkpt>
      <trkpt lat="45.77791" lon="4.65438">
        <ele>576.45</ele>
        <time>2021-03-24T08:18:56Z</time>
      </trkpt>
      <trkpt lat="45.77789" lon="4.65444">
        <ele>575.97</ele>
        <time>2021-03-24T08:18:57Z</time>
      </trkpt>
      <trkpt lat="45.77788" lon="4.65451">
        <ele>575.97</ele>
        <time>2021-03-24T08:18:58Z</time>
      </trkpt>
      <trkpt lat="45.77787" lon="4.65457">
        <ele>575.49</ele>
        <time>2021-03-24T08:18:59Z</time>
      </trkpt>
      <trkpt lat="45.77785" lon="4.65463">
        <ele>575.01</ele>
        <time>2021-03-24T08:19:00Z</time>
      </trkpt>
      <trkpt lat="45.77782" lon="4.65469">
        <ele>575.01</ele>
        <time>2021-03-24T08:19:01Z</time>
      </trkpt>
      <trkpt lat="45.7778" lon="4.65477">
        <ele>575.01</ele>
        <time>2021-03-24T08:19:02Z</time>
      </trkpt>
      <trkpt lat="45.77777" lon="4.65484">
        <ele>574.53</ele>
        <time>2021-03-24T08:19:03Z</time>
      </trkpt>
      <trkpt lat="45.77774" lon="4.6549">
        <ele>574.04</ele>
        <time>2021-03-24T08:19:04Z</time>
      </trkpt>
      <trkpt lat="45.7777" lon="4.65494">
        <ele>574.04</ele>
        <time>2021-03-24T08:19:05Z</time>
      </trkpt>
      <trkpt lat="45.77767" lon="4.65498">
        <ele>573.56</ele>
        <time>2021-03-24T08:19:06Z</time>
      </trkpt>
      <trkpt lat="45.77764" lon="4.65501">
        <ele>573.56</ele>
        <time>2021-03-24T08:19:07Z</time>
      </trkpt>
      <trkpt lat="45.7776" lon="4.65505">
        <ele>573.56</ele>
        <time>2021-03-24T08:19:08Z</time>
      </trkpt>
      <trkpt lat="45.77756" lon="4.6551">
        <ele>573.08</ele>
        <time>2021-03-24T08:19:09Z</time>
      </trkpt>
      <trkpt lat="45.77752" lon="4.65515">
        <ele>572.6</ele>
        <time>2021-03-24T08:19:10Z</time>
      </trkpt>
      <trkpt lat="45.77747" lon="4.65529">
        <ele>571.64</ele>
        <time>2021-03-24T08:19:13Z</time>
      </trkpt>
      <trkpt lat="45.77748" lon="4.65535">
        <ele>571.64</ele>
        <time>2021-03-24T08:19:14Z</time>
      </trkpt>
      <trkpt lat="45.77749" lon="4.6554">
        <ele>571.16</ele>
        <time>2021-03-24T08:19:15Z</time>
      </trkpt>
      <trkpt lat="45.77749" lon="4.65546">
        <ele>571.16</ele>
        <time>2021-03-24T08:19:16Z</time>
      </trkpt>
      <trkpt lat="45.7775" lon="4.65552">
        <ele>570.68</ele>
        <time>2021-03-24T08:19:17Z</time>
      </trkpt>
      <trkpt lat="45.77751" lon="4.65557">
        <ele>570.2</ele>
        <time>2021-03-24T08:19:18Z</time>
      </trkpt>
      <trkpt lat="45.77753" lon="4.65563">
        <ele>570.2</ele>
        <time>2021-03-24T08:19:19Z</time>
      </trkpt>
      <trkpt lat="45.77754" lon="4.6557">
        <ele>569.72</ele>
        <time>2021-03-24T08:19:20Z</time>
      </trkpt>
      <trkpt lat="45.77754" lon="4.65578">
        <ele>569.72</ele>
        <time>2021-03-24T08:19:21Z</time>
      </trkpt>
      <trkpt lat="45.77754" lon="4.65586">
        <ele>569.72</ele>
        <time>2021-03-24T08:19:22Z</time>
      </trkpt>
      <trkpt lat="45.77754" lon="4.65593">
        <ele>569.72</ele>
        <time>2021-03-24T08:19:23Z</time>
      </trkpt>
      <trkpt lat="45.77754" lon="4.656">
        <ele>569.24</ele>
        <time>2021-03-24T08:19:24Z</time>
      </trkpt>
      <trkpt lat="45.77754" lon="4.65608">
        <ele>569.24</ele>
        <time>2021-03-24T08:19:25Z</time>
      </trkpt>
      <trkpt lat="45.77755" lon="4.65614">
        <ele>569.24</ele>
        <time>2021-03-24T08:19:26Z</time>
      </trkpt>
      <trkpt lat="45.77754" lon="4.65618">
        <ele>568.76</ele>
        <time>2021-03-24T08:19:27Z</time>
      </trkpt>
      <trkpt lat="45.77753" lon="4.65623">
        <ele>568.28</ele>
        <time>2021-03-24T08:19:28Z</time>
      </trkpt>
      <trkpt lat="45.77753" lon="4.65627">
        <ele>567.8</ele>
        <time>2021-03-24T08:19:29Z</time>
      </trkpt>
      <trkpt lat="45.77753" lon="4.6563">
        <ele>567.32</ele>
        <time>2021-03-24T08:19:30Z</time>
      </trkpt>
      <trkpt lat="45.77755" lon="4.65634">
        <ele>566.83</ele>
        <time>2021-03-24T08:19:31Z</time>
      </trkpt>
      <trkpt lat="45.77756" lon="4.65637">
        <ele>566.83</ele>
        <time>2021-03-24T08:19:32Z</time>
      </trkpt>
      <trkpt lat="45.77757" lon="4.6564">
        <ele>566.35</ele>
        <time>2021-03-24T08:19:33Z</time>
      </trkpt>
      <trkpt lat="45.77756" lon="4.65645">
        <ele>565.87</ele>
        <time>2021-03-24T08:19:34Z</time>
      </trkpt>
      <trkpt lat="45.77756" lon="4.6565">
        <ele>565.39</ele>
        <time>2021-03-24T08:19:35Z</time>
      </trkpt>
      <trkpt lat="45.77758" lon="4.65653">
        <ele>565.39</ele>
        <time>2021-03-24T08:19:36Z</time>
      </trkpt>
      <trkpt lat="45.7776" lon="4.65655">
        <ele>564.91</ele>
        <time>2021-03-24T08:19:37Z</time>
      </trkpt>
      <trkpt lat="45.77762" lon="4.65658">
        <ele>564.43</ele>
        <time>2021-03-24T08:19:38Z</time>
      </trkpt>
      <trkpt lat="45.77767" lon="4.65671">
        <ele>561.07</ele>
        <time>2021-03-24T08:19:45Z</time>
      </trkpt>
      <trkpt lat="45.77768" lon="4.65674">
        <ele>560.59</ele>
        <time>2021-03-24T08:19:46Z</time>
      </trkpt>
      <trkpt lat="45.77769" lon="4.65677">
        <ele>559.62</ele>
        <time>2021-03-24T08:19:47Z</time>
      </trkpt>
      <trkpt lat="45.7777" lon="4.6568">
        <ele>559.62</ele>
        <time>2021-03-24T08:19:48Z</time>
      </trkpt>
      <trkpt lat="45.7777" lon="4.65682">
        <ele>559.14</ele>
        <time>2021-03-24T08:19:49Z</time>
      </trkpt>
      <trkpt lat="45.77771" lon="4.65685">
        <ele>559.14</ele>
        <time>2021-03-24T08:19:50Z</time>
      </trkpt>
      <trkpt lat="45.77772" lon="4.65689">
        <ele>558.18</ele>
        <time>2021-03-24T08:19:51Z</time>
      </trkpt>
      <trkpt lat="45.77773" lon="4.65693">
        <ele>558.18</ele>
        <time>2021-03-24T08:19:52Z</time>
      </trkpt>
      <trkpt lat="45.77774" lon="4.65695">
        <ele>557.22</ele>
        <time>2021-03-24T08:19:53Z</time>
      </trkpt>
      <trkpt lat="45.77777" lon="4.65698">
        <ele>557.22</ele>
        <time>2021-03-24T08:19:54Z</time>
      </trkpt>
      <trkpt lat="45.77792" lon="4.65726">
        <ele>553.86</ele>
        <time>2021-03-24T08:20:01Z</time>
      </trkpt>
      <trkpt lat="45.77794" lon="4.65729">
        <ele>553.38</ele>
        <time>2021-03-24T08:20:02Z</time>
      </trkpt>
      <trkpt lat="45.77795" lon="4.65731">
        <ele>552.9</ele>
        <time>2021-03-24T08:20:03Z</time>
      </trkpt>
      <trkpt lat="45.77797" lon="4.65735">
        <ele>552.41</ele>
        <time>2021-03-24T08:20:04Z</time>
      </trkpt>
      <trkpt lat="45.77798" lon="4.65738">
        <ele>551.45</ele>
        <time>2021-03-24T08:20:05Z</time>
      </trkpt>
      <trkpt lat="45.778" lon="4.65741">
        <ele>550.97</ele>
        <time>2021-03-24T08:20:06Z</time>
      </trkpt>
      <trkpt lat="45.77801" lon="4.65744">
        <ele>550.01</ele>
        <time>2021-03-24T08:20:07Z</time>
      </trkpt>
      <trkpt lat="45.77803" lon="4.65747">
        <ele>549.53</ele>
        <time>2021-03-24T08:20:08Z</time>
      </trkpt>
      <trkpt lat="45.77809" lon="4.65758">
        <ele>547.61</ele>
        <time>2021-03-24T08:20:12Z</time>
      </trkpt>
      <trkpt lat="45.77811" lon="4.6576">
        <ele>547.13</ele>
        <time>2021-03-24T08:20:13Z</time>
      </trkpt>
      <trkpt lat="45.77813" lon="4.65762">
        <ele>546.65</ele>
        <time>2021-03-24T08:20:14Z</time>
      </trkpt>
      <trkpt lat="45.77815" lon="4.65765">
        <ele>546.17</ele>
        <time>2021-03-24T08:20:15Z</time>
      </trkpt>
      <trkpt lat="45.77817" lon="4.65767">
        <ele>546.17</ele>
        <time>2021-03-24T08:20:16Z</time>
      </trkpt>
      <trkpt lat="45.77819" lon="4.65768">
        <ele>545.2</ele>
        <time>2021-03-24T08:20:17Z</time>
      </trkpt>
      <trkpt lat="45.7782" lon="4.65769">
        <ele>545.2</ele>
        <time>2021-03-24T08:20:18Z</time>
      </trkpt>
      <trkpt lat="45.77829" lon="4.65782">
        <ele>541.84</ele>
        <time>2021-03-24T08:20:24Z</time>
      </trkpt>
      <trkpt lat="45.7783" lon="4.65788">
        <ele>541.36</ele>
        <time>2021-03-24T08:20:25Z</time>
      </trkpt>
      <trkpt lat="45.77836" lon="4.65819">
        <ele>537.99</ele>
        <time>2021-03-24T08:20:32Z</time>
      </trkpt>
      <trkpt lat="45.7784" lon="4.65833">
        <ele>535.11</ele>
        <time>2021-03-24T08:20:38Z</time>
      </trkpt>
      <trkpt lat="45.77841" lon="4.65836">
        <ele>534.63</ele>
        <time>2021-03-24T08:20:39Z</time>
      </trkpt>
      <trkpt lat="45.77844" lon="4.6585">
        <ele>533.19</ele>
        <time>2021-03-24T08:20:43Z</time>
      </trkpt>
      <trkpt lat="45.77845" lon="4.65853">
        <ele>532.71</ele>
        <time>2021-03-24T08:20:44Z</time>
      </trkpt>
      <trkpt lat="45.77845" lon="4.65858">
        <ele>531.27</ele>
        <time>2021-03-24T08:20:46Z</time>
      </trkpt>
      <trkpt lat="45.77846" lon="4.65864">
        <ele>529.82</ele>
        <time>2021-03-24T08:20:49Z</time>
      </trkpt>
      <trkpt lat="45.77847" lon="4.65866">
        <ele>529.34</ele>
        <time>2021-03-24T08:20:50Z</time>
      </trkpt>
      <trkpt lat="45.77849" lon="4.65868">
        <ele>528.86</ele>
        <time>2021-03-24T08:20:51Z</time>
      </trkpt>
      <trkpt lat="45.77851" lon="4.65877">
        <ele>527.42</ele>
        <time>2021-03-24T08:20:54Z</time>
      </trkpt>
      <trkpt lat="45.77851" lon="4.6588">
        <ele>527.42</ele>
        <time>2021-03-24T08:20:55Z</time>
      </trkpt>
      <trkpt lat="45.77858" lon="4.65903">
        <ele>525.02</ele>
        <time>2021-03-24T08:21:00Z</time>
      </trkpt>
      <trkpt lat="45.7786" lon="4.65916">
        <ele>524.06</ele>
        <time>2021-03-24T08:21:02Z</time>
      </trkpt>
      <trkpt lat="45.77861" lon="4.65925">
        <ele>524.06</ele>
        <time>2021-03-24T08:21:03Z</time>
      </trkpt>
      <trkpt lat="45.77862" lon="4.65935">
        <ele>523.58</ele>
        <time>2021-03-24T08:21:04Z</time>
      </trkpt>
      <trkpt lat="45.77862" lon="4.65944">
        <ele>523.09</ele>
        <time>2021-03-24T08:21:05Z</time>
      </trkpt>
      <trkpt lat="45.77863" lon="4.65954">
        <ele>522.61</ele>
        <time>2021-03-24T08:21:06Z</time>
      </trkpt>
      <trkpt lat="45.77862" lon="4.65964">
        <ele>522.13</ele>
        <time>2021-03-24T08:21:07Z</time>
      </trkpt>
      <trkpt lat="45.7786" lon="4.66003">
        <ele>518.77</ele>
        <time>2021-03-24T08:21:11Z</time>
      </trkpt>
      <trkpt lat="45.7786" lon="4.66032">
        <ele>514.92</ele>
        <time>2021-03-24T08:21:14Z</time>
      </trkpt>
      <trkpt lat="45.77862" lon="4.66057">
        <ele>513</ele>
        <time>2021-03-24T08:21:17Z</time>
      </trkpt>
      <trkpt lat="45.77863" lon="4.66063">
        <ele>513</ele>
        <time>2021-03-24T08:21:18Z</time>
      </trkpt>
      <trkpt lat="45.77868" lon="4.66087">
        <ele>510.6</ele>
        <time>2021-03-24T08:21:22Z</time>
      </trkpt>
      <trkpt lat="45.77868" lon="4.66095">
        <ele>510.12</ele>
        <time>2021-03-24T08:21:23Z</time>
      </trkpt>
      <trkpt lat="45.77867" lon="4.66104">
        <ele>509.64</ele>
        <time>2021-03-24T08:21:24Z</time>
      </trkpt>
      <trkpt lat="45.77865" lon="4.66112">
        <ele>509.16</ele>
        <time>2021-03-24T08:21:25Z</time>
      </trkpt>
      <trkpt lat="45.77863" lon="4.6612">
        <ele>509.16</ele>
        <time>2021-03-24T08:21:26Z</time>
      </trkpt>
      <trkpt lat="45.77862" lon="4.66128">
        <ele>509.16</ele>
        <time>2021-03-24T08:21:27Z</time>
      </trkpt>
      <trkpt lat="45.7786" lon="4.66137">
        <ele>508.67</ele>
        <time>2021-03-24T08:21:28Z</time>
      </trkpt>
      <trkpt lat="45.77859" lon="4.66146">
        <ele>508.67</ele>
        <time>2021-03-24T08:21:29Z</time>
      </trkpt>
      <trkpt lat="45.77858" lon="4.66156">
        <ele>508.19</ele>
        <time>2021-03-24T08:21:30Z</time>
      </trkpt>
      <trkpt lat="45.77856" lon="4.66165">
        <ele>507.71</ele>
        <time>2021-03-24T08:21:31Z</time>
      </trkpt>
      <trkpt lat="45.77853" lon="4.66172">
        <ele>507.23</ele>
        <time>2021-03-24T08:21:32Z</time>
      </trkpt>
      <trkpt lat="45.7785" lon="4.66186">
        <ele>505.31</ele>
        <time>2021-03-24T08:21:34Z</time>
      </trkpt>
      <trkpt lat="45.77844" lon="4.66211">
        <ele>502.91</ele>
        <time>2021-03-24T08:21:37Z</time>
      </trkpt>
      <trkpt lat="45.77843" lon="4.66219">
        <ele>502.43</ele>
        <time>2021-03-24T08:21:38Z</time>
      </trkpt>
      <trkpt lat="45.77839" lon="4.66264">
        <ele>499.54</ele>
        <time>2021-03-24T08:21:44Z</time>
      </trkpt>
      <trkpt lat="45.77834" lon="4.6635">
        <ele>497.62</ele>
        <time>2021-03-24T08:21:56Z</time>
      </trkpt>
      <trkpt lat="45.77833" lon="4.66356">
        <ele>497.62</ele>
        <time>2021-03-24T08:21:57Z</time>
      </trkpt>
      <trkpt lat="45.77832" lon="4.66362">
        <ele>497.62</ele>
        <time>2021-03-24T08:21:58Z</time>
      </trkpt>
      <trkpt lat="45.77832" lon="4.66369">
        <ele>497.62</ele>
        <time>2021-03-24T08:21:59Z</time>
      </trkpt>
      <trkpt lat="45.77832" lon="4.66375">
        <ele>497.62</ele>
        <time>2021-03-24T08:22:00Z</time>
      </trkpt>
      <trkpt lat="45.77832" lon="4.66388">
        <ele>497.62</ele>
        <time>2021-03-24T08:22:02Z</time>
      </trkpt>
      <trkpt lat="45.77833" lon="4.66393">
        <ele>497.62</ele>
        <time>2021-03-24T08:22:03Z</time>
      </trkpt>
      <trkpt lat="45.7785" lon="4.66444">
        <ele>497.62</ele>
        <time>2021-03-24T08:22:13Z</time>
      </trkpt>
      <trkpt lat="45.77853" lon="4.66458">
        <ele>497.62</ele>
        <time>2021-03-24T08:22:15Z</time>
      </trkpt>
      <trkpt lat="45.77854" lon="4.66465">
        <ele>497.62</ele>
        <time>2021-03-24T08:22:16Z</time>
      </trkpt>
      <trkpt lat="45.7786" lon="4.66501">
        <ele>495.7</ele>
        <time>2021-03-24T08:22:22Z</time>
      </trkpt>
      <trkpt lat="45.77868" lon="4.6652">
        <ele>492.81</ele>
        <time>2021-03-24T08:22:25Z</time>
      </trkpt>
      <trkpt lat="45.77877" lon="4.66542">
        <ele>489.45</ele>
        <time>2021-03-24T08:22:32Z</time>
      </trkpt>
      <trkpt lat="45.77885" lon="4.6658">
        <ele>486.56</ele>
        <time>2021-03-24T08:22:42Z</time>
      </trkpt>
      <trkpt lat="45.77891" lon="4.66593">
        <ele>483.2</ele>
        <time>2021-03-24T08:22:47Z</time>
      </trkpt>
      <trkpt lat="45.77891" lon="4.66593">
        <ele>483.2</ele>
        <time>2021-03-24T08:22:48Z</time>
      </trkpt>
      <trkpt lat="45.77892" lon="4.66593">
        <ele>482.72</ele>
        <time>2021-03-24T08:22:49Z</time>
      </trkpt>
    </trkseg>
  </trk>
</gpx>